Pagina principală
METAR-TAF:

METAR-TAF

Aeroporturi :

Las Cruces International Airport

Las Cruces, New Mexico, Statele Unite ale Americii

Latitudine: 32-17-22N, longitudine: 106-55-19W, elevație: 1358 m

Observații meteo curente

Raportul a fost făcut în urmă cu 26 de minute, la 23:15 UTC
Vânt 5 kt de la Est/Nord-est
Temperatură 35°C
Umiditate 23%
Presiune 1021 hPa
Vizibilitate: 16.1 km
Cer senin

METAR: KLRU 182315Z AUTO 06005KT 10SM CLR 35/11 A3015 RMK AO2 T03510105

Ora: 17:41 (23:41 UTC)

Prognoză

Raportul a fost făcut în urmă cu 17 de minute, la 23:24 UTC
Prognoză valabilă de la 19 ora 00 UTC la 19 ora 24 UTC
Vânt 8 kt de la Est/Nord-est
Vizibilitate: 10 km
Nori împrăștiați la o înălțime de 11000 picior

TAF: KLRU 182324Z 1900/1924 07008KT P6SM SCT110

Observații și prognoze meteo pentru peste 4.000 de aeroporturi (rapoarte METAR și TAF).

Stațiile disponibile sunt reprezentate pe hartă prin puncte galbene și roșii.

Țineți indicatorul mouse-ului pe punctul dorit pentru a vedea denumirea stației.

Apoi, faceți clic pentru a vedea observațiile și prognozele meteorologice.

Pentru a schimba harta: Pentru mărire, faceți clic pe butoanele verzi cu cruce neagră; pentru micșorare, pe butonul verde cu o liniuță; pentru hărți învecinate, pe săgețile verzi.


METAR-TAF: